Terminal Aerodrome Forecast
Issued by NWS

Home | Current Version | Previous Version | Text Only | Print | Product List | Glossary On
Versions: 1 2 3 4 5 6 7 8 9 10 11 12
000
FTUS42 TJSJ 261700
TAFJMZ
TAF
TJMZ 261727Z 2618/2718 27010KT P6SM SCT030
     FM262330 04004KT P6SM SCT025
     FM271530 27010KT P6SM SCT025 BKN040
      AMD NOT SKED=

USA.gov is the U.S. government's official web portal to all federal, state and local government web resources and services.